createdAt,value
2017-07-30T00:00:02.456Z,22.81
2017-07-30T00:02:29.890Z,22.76
2017-07-30T00:04:57.314Z,22.70
2017-07-30T00:07:24.786Z,22.67
2017-07-30T00:09:52.214Z,22.62
2017-07-30T00:12:19.676Z,22.58
2017-07-30T00:14:47.127Z,22.57
2017-07-30T00:17:14.576Z,22.51
2017-07-30T00:19:41.987Z,22.38
2017-07-30T00:22:09.423Z,22.30
2017-07-30T00:24:36.853Z,22.29
2017-07-30T00:27:04.270Z,22.25
2017-07-30T00:29:31.694Z,22.18
2017-07-30T00:31:59.275Z,22.22
2017-07-30T00:34:26.684Z,22.22
2017-07-30T00:36:54.132Z,22.21
2017-07-30T00:39:21.559Z,22.17
2017-07-30T00:41:49.022Z,22.12
2017-07-30T00:44:16.495Z,22.06
2017-07-30T00:46:43.947Z,22.03
2017-07-30T00:49:11.354Z,21.99
2017-07-30T00:51:38.828Z,21.92
2017-07-30T00:54:06.312Z,21.89
2017-07-30T00:56:34.725Z,21.85
2017-07-30T00:59:02.146Z,21.86
2017-07-30T01:01:29.562Z,21.86
2017-07-30T01:03:56.991Z,21.77
2017-07-30T01:06:24.440Z,21.70
2017-07-30T01:08:51.844Z,21.72
2017-07-30T01:11:19.280Z,21.73
2017-07-30T01:13:46.745Z,21.75
2017-07-30T01:16:14.146Z,21.67
2017-07-30T01:18:41.595Z,21.55
2017-07-30T01:21:09.004Z,21.56
2017-07-30T01:23:36.419Z,21.57
2017-07-30T01:26:03.868Z,21.58
2017-07-30T01:28:32.012Z,21.58
2017-07-30T01:30:59.463Z,21.62
2017-07-30T01:33:26.889Z,21.60
2017-07-30T01:35:54.631Z,21.57
2017-07-30T01:38:22.067Z,21.50
2017-07-30T01:40:49.508Z,21.41
2017-07-30T01:43:17.145Z,21.37
2017-07-30T01:45:44.574Z,21.31
2017-07-30T01:48:11.979Z,21.19
2017-07-30T01:50:39.402Z,21.12
2017-07-30T01:53:06.814Z,21.18
2017-07-30T01:55:34.240Z,21.22
2017-07-30T01:58:01.688Z,21.17
2017-07-30T02:00:29.211Z,21.10
2017-07-30T02:02:56.639Z,21.12
2017-07-30T02:05:24.058Z,21.15
2017-07-30T02:07:51.499Z,21.15
2017-07-30T02:10:18.906Z,21.13
2017-07-30T02:12:46.319Z,21.09
2017-07-30T02:15:13.847Z,21.10
2017-07-30T02:17:41.431Z,21.01
2017-07-30T02:20:08.926Z,20.98
2017-07-30T02:22:36.310Z,20.99
2017-07-30T02:25:03.836Z,21.03
2017-07-30T02:27:31.251Z,21.06
2017-07-30T02:29:58.664Z,21.06
2017-07-30T02:32:26.095Z,21.06
2017-07-30T02:34:53.567Z,21.04
2017-07-30T02:37:21.116Z,21.06
2017-07-30T02:39:48.541Z,21.06
2017-07-30T02:42:15.960Z,21.04
2017-07-30T02:44:43.403Z,20.95
2017-07-30T02:47:10.859Z,20.91
2017-07-30T02:49:38.302Z,20.89
2017-07-30T02:52:05.735Z,20.92
2017-07-30T02:54:33.278Z,20.89
2017-07-30T02:57:00.683Z,20.90
2017-07-30T02:59:28.114Z,20.87
2017-07-30T03:01:55.538Z,20.84
2017-07-30T03:04:22.942Z,20.82
2017-07-30T03:06:50.342Z,20.75
2017-07-30T03:09:17.775Z,20.77
2017-07-30T03:11:45.186Z,20.77
2017-07-30T03:14:12.632Z,20.78
2017-07-30T03:16:40.055Z,20.83
2017-07-30T03:19:07.509Z,20.91
2017-07-30T03:21:34.948Z,20.96
2017-07-30T03:24:02.371Z,21.00
2017-07-30T03:26:30.114Z,21.06
2017-07-30T03:28:57.528Z,21.07
2017-07-30T03:31:24.962Z,21.13
2017-07-30T03:33:52.999Z,21.16
2017-07-30T03:36:20.424Z,21.17
2017-07-30T03:38:47.891Z,21.14
2017-07-30T03:41:15.296Z,21.04
2017-07-30T03:43:42.703Z,20.99
2017-07-30T03:46:10.144Z,20.95
2017-07-30T03:48:37.552Z,20.95
2017-07-30T03:51:04.991Z,20.92
2017-07-30T03:53:32.535Z,20.91
2017-07-30T03:56:00.123Z,20.94
2017-07-30T03:58:27.872Z,20.92
2017-07-30T04:00:55.287Z,20.93
2017-07-30T04:03:22.707Z,20.97
2017-07-30T04:05:50.188Z,20.98
2017-07-30T04:08:17.631Z,21.02
2017-07-30T04:10:45.024Z,20.98
2017-07-30T04:13:12.458Z,20.97
2017-07-30T04:15:39.876Z,21.00
2017-07-30T04:18:07.297Z,21.02
2017-07-30T04:20:34.828Z,21.01
2017-07-30T04:23:02.221Z,21.06
2017-07-30T04:25:29.671Z,21.02
2017-07-30T04:27:57.110Z,20.95
2017-07-30T04:30:24.611Z,21.03
2017-07-30T04:32:52.060Z,21.12
2017-07-30T04:35:19.580Z,21.16
2017-07-30T04:37:47.016Z,21.20
2017-07-30T04:40:14.450Z,21.25
2017-07-30T04:42:41.862Z,21.31
2017-07-30T04:45:09.311Z,21.33
2017-07-30T04:47:36.715Z,21.33
2017-07-30T04:50:04.239Z,21.29
2017-07-30T04:52:31.691Z,21.26
2017-07-30T04:54:59.136Z,21.21
2017-07-30T04:57:27.031Z,21.17
2017-07-30T04:59:54.496Z,21.15
2017-07-30T05:02:21.931Z,21.14
2017-07-30T05:04:49.393Z,21.16
2017-07-30T05:07:16.795Z,21.15
2017-07-30T05:09:44.227Z,21.14
2017-07-30T05:12:11.654Z,21.16
2017-07-30T05:14:39.142Z,21.16
2017-07-30T05:17:06.553Z,21.21
2017-07-30T05:19:33.993Z,21.25
2017-07-30T05:22:01.407Z,21.28
2017-07-30T05:24:28.814Z,21.34
2017-07-30T05:26:56.261Z,21.41
2017-07-30T05:29:23.676Z,21.50
2017-07-30T05:31:51.104Z,21.60
2017-07-30T05:36:52.259Z,21.73
2017-07-30T05:39:19.693Z,21.78
2017-07-30T05:41:47.112Z,21.89
2017-07-30T05:44:14.552Z,21.95
2017-07-30T05:46:41.976Z,21.93
2017-07-30T05:49:09.388Z,22.02
2017-07-30T05:51:36.916Z,22.12
2017-07-30T05:54:04.440Z,22.21
2017-07-30T05:56:32.031Z,22.36
2017-07-30T05:58:59.432Z,22.54
2017-07-30T06:01:26.848Z,22.67
2017-07-30T06:03:54.274Z,22.82
2017-07-30T06:06:21.682Z,22.95
2017-07-30T06:08:49.202Z,23.08
2017-07-30T06:11:16.635Z,23.26
2017-07-30T06:13:44.058Z,23.77
2017-07-30T06:16:11.511Z,23.84
2017-07-30T06:18:38.916Z,24.04
2017-07-30T06:21:06.355Z,25.15
2017-07-30T06:23:33.782Z,26.34
2017-07-30T06:26:02.192Z,26.07
2017-07-30T06:28:29.628Z,25.61
2017-07-30T06:30:57.036Z,25.31
2017-07-30T06:33:24.474Z,25.13
2017-07-30T06:35:51.877Z,24.88
2017-07-30T06:38:19.332Z,24.84
2017-07-30T06:40:46.769Z,24.92
2017-07-30T06:43:14.170Z,24.96
2017-07-30T06:45:41.636Z,24.97
2017-07-30T06:48:09.115Z,24.96
2017-07-30T06:50:36.504Z,24.95
2017-07-30T06:53:03.946Z,24.97
2017-07-30T06:55:31.420Z,24.94
2017-07-30T06:57:58.865Z,25.00
2017-07-30T07:00:26.286Z,25.08
2017-07-30T07:02:53.728Z,25.14
2017-07-30T07:05:21.151Z,25.23
2017-07-30T07:07:48.546Z,25.38
2017-07-30T07:10:15.990Z,25.40
2017-07-30T07:12:43.403Z,25.50
2017-07-30T07:15:10.859Z,25.58
2017-07-30T07:17:38.319Z,25.59
2017-07-30T07:20:05.715Z,25.72
2017-07-30T07:22:33.168Z,25.82
2017-07-30T07:25:00.603Z,25.79
2017-07-30T07:27:28.471Z,25.86
2017-07-30T07:29:55.880Z,25.95
2017-07-30T07:32:23.309Z,26.05
2017-07-30T07:34:50.866Z,26.12
2017-07-30T07:37:18.294Z,26.15
2017-07-30T07:39:45.726Z,26.29
2017-07-30T07:42:13.182Z,26.29
2017-07-30T07:44:40.763Z,26.48
2017-07-30T07:47:08.270Z,26.52
2017-07-30T07:49:35.713Z,26.54
2017-07-30T07:52:03.179Z,26.64
2017-07-30T07:54:30.636Z,26.73
2017-07-30T07:56:58.036Z,26.81
2017-07-30T07:59:25.446Z,26.78
2017-07-30T08:01:52.895Z,26.94
2017-07-30T08:04:20.360Z,27.08
2017-07-30T08:06:47.795Z,27.12
2017-07-30T08:09:15.243Z,27.22
2017-07-30T08:11:42.683Z,27.24
2017-07-30T08:14:10.122Z,27.26
2017-07-30T08:16:37.520Z,27.34
2017-07-30T08:19:04.965Z,27.46
2017-07-30T08:21:32.409Z,27.58
2017-07-30T08:23:59.819Z,27.71
2017-07-30T08:26:27.262Z,27.84
2017-07-30T08:28:54.747Z,27.90
2017-07-30T08:31:22.222Z,28.02
2017-07-30T08:33:49.655Z,27.95
2017-07-30T08:36:17.088Z,28.09
2017-07-30T08:38:44.491Z,28.11
2017-07-30T08:41:11.931Z,28.20
2017-07-30T08:43:39.363Z,28.39
2017-07-30T08:46:06.790Z,28.35
2017-07-30T08:48:34.207Z,28.47
2017-07-30T08:51:01.652Z,28.45
2017-07-30T08:53:29.087Z,28.57
2017-07-30T08:55:56.498Z,28.69
2017-07-30T08:58:23.963Z,28.88
2017-07-30T09:00:51.391Z,28.87
2017-07-30T09:03:18.832Z,28.92
2017-07-30T09:05:46.357Z,28.83
2017-07-30T09:08:13.755Z,28.94
2017-07-30T09:10:41.223Z,29.13
2017-07-30T09:13:08.616Z,29.36
2017-07-30T09:15:36.095Z,29.51
2017-07-30T09:18:03.519Z,29.33
2017-07-30T09:20:31.040Z,29.25
2017-07-30T09:22:58.441Z,29.30
2017-07-30T09:25:25.861Z,29.45
2017-07-30T09:27:53.276Z,29.63
2017-07-30T09:30:20.700Z,29.68
2017-07-30T09:32:48.117Z,29.46
2017-07-30T09:35:15.557Z,29.49
2017-07-30T09:37:43.004Z,29.62
2017-07-30T09:40:10.439Z,29.68
2017-07-30T09:42:37.879Z,29.53
2017-07-30T09:45:05.360Z,29.65
2017-07-30T09:47:32.799Z,29.91
2017-07-30T09:50:00.252Z,29.98
2017-07-30T09:52:27.663Z,30.01
2017-07-30T09:54:55.120Z,29.94
2017-07-30T09:57:22.555Z,29.93
2017-07-30T09:59:49.987Z,29.98
2017-07-30T10:02:17.392Z,30.17
2017-07-30T10:04:44.885Z,30.45
2017-07-30T10:07:12.375Z,30.64
2017-07-30T10:09:39.865Z,30.78
2017-07-30T10:12:07.307Z,30.93
2017-07-30T10:14:34.743Z,30.75
2017-07-30T10:17:02.171Z,30.65
2017-07-30T10:19:29.612Z,30.33
2017-07-30T10:21:57.103Z,30.54
2017-07-30T10:24:24.774Z,30.73
2017-07-30T10:26:52.240Z,30.82
2017-07-30T10:29:19.681Z,30.75
2017-07-30T10:31:47.151Z,30.65
2017-07-30T10:34:14.615Z,30.68
2017-07-30T10:36:42.152Z,30.72
2017-07-30T10:39:09.557Z,30.80
2017-07-30T10:41:36.996Z,30.83
2017-07-30T10:44:04.520Z,30.91
2017-07-30T10:46:31.952Z,31.01
2017-07-30T10:48:59.391Z,31.25
2017-07-30T10:51:26.843Z,31.38
2017-07-30T10:53:54.322Z,31.12
2017-07-30T10:56:21.756Z,31.07
2017-07-30T10:58:49.163Z,31.12
2017-07-30T11:01:16.656Z,31.26
2017-07-30T11:03:44.088Z,31.42
2017-07-30T11:06:11.496Z,31.77
2017-07-30T11:08:38.935Z,31.90
2017-07-30T11:11:06.362Z,31.98
2017-07-30T11:13:33.755Z,32.04
2017-07-30T11:16:01.172Z,31.76
2017-07-30T11:18:28.604Z,31.61
2017-07-30T11:20:56.035Z,31.63
2017-07-30T11:23:23.475Z,31.80
2017-07-30T11:25:50.914Z,31.74
2017-07-30T11:28:18.332Z,31.97
2017-07-30T11:30:45.816Z,31.97
2017-07-30T11:33:13.272Z,32.10
2017-07-30T11:35:40.941Z,32.00
2017-07-30T11:38:08.405Z,31.87
2017-07-30T11:40:35.869Z,32.19
2017-07-30T11:43:03.364Z,32.65
2017-07-30T11:45:30.841Z,33.05
2017-07-30T11:47:58.252Z,33.16
2017-07-30T11:50:25.692Z,33.17
2017-07-30T11:52:53.129Z,32.62
2017-07-30T11:55:20.689Z,32.61
2017-07-30T11:57:48.188Z,32.68
2017-07-30T12:00:15.666Z,32.37
2017-07-30T12:02:43.094Z,32.28
2017-07-30T12:05:10.667Z,32.27
2017-07-30T12:07:38.102Z,31.98
2017-07-30T12:10:05.572Z,31.85
2017-07-30T12:12:33.018Z,31.90
2017-07-30T12:15:00.434Z,31.75
2017-07-30T12:17:27.863Z,31.85
2017-07-30T12:19:55.910Z,32.06
2017-07-30T12:22:23.311Z,32.19
2017-07-30T12:24:50.718Z,32.06
2017-07-30T12:27:18.283Z,31.97
2017-07-30T12:29:45.740Z,31.72
2017-07-30T12:32:13.251Z,31.45
2017-07-30T12:34:40.680Z,31.62
2017-07-30T12:37:08.187Z,31.39
2017-07-30T12:39:35.630Z,31.28
2017-07-30T12:42:03.063Z,31.26
2017-07-30T12:44:30.580Z,31.60
2017-07-30T12:46:58.118Z,31.81
2017-07-30T12:49:25.540Z,32.00
2017-07-30T12:51:53.053Z,32.13
2017-07-30T12:54:20.447Z,32.15
2017-07-30T12:56:47.889Z,32.39
2017-07-30T12:59:15.313Z,32.28
2017-07-30T13:01:42.745Z,32.36
2017-07-30T13:04:10.175Z,32.08
2017-07-30T13:06:37.577Z,32.75
2017-07-30T13:09:05.015Z,33.39
2017-07-30T13:11:32.438Z,34.03
2017-07-30T13:13:59.924Z,35.43
2017-07-30T13:16:27.368Z,36.58
2017-07-30T13:18:54.779Z,37.64
2017-07-30T13:21:22.228Z,38.36
2017-07-30T13:23:49.748Z,38.28
2017-07-30T13:26:17.264Z,36.43
2017-07-30T13:28:44.671Z,35.35
2017-07-30T13:31:12.128Z,35.96
2017-07-30T13:33:39.595Z,36.44
2017-07-30T13:36:07.027Z,35.92
2017-07-30T13:38:34.451Z,36.34
2017-07-30T13:41:01.886Z,35.94
2017-07-30T13:43:29.303Z,35.02
2017-07-30T13:45:56.735Z,35.43
2017-07-30T13:48:24.144Z,35.23
2017-07-30T13:50:51.542Z,34.32
2017-07-30T13:53:19.051Z,33.78
2017-07-30T13:55:46.472Z,34.34
2017-07-30T13:58:13.997Z,34.07
2017-07-30T14:00:41.445Z,33.62
2017-07-30T14:03:08.881Z,33.55
2017-07-30T14:05:36.326Z,33.50
2017-07-30T14:08:03.792Z,33.22
2017-07-30T14:10:31.239Z,33.07
2017-07-30T14:12:58.724Z,33.10
2017-07-30T14:15:26.164Z,32.92
2017-07-30T14:17:53.601Z,32.98
2017-07-30T14:20:21.047Z,33.66
2017-07-30T14:22:48.478Z,34.02
2017-07-30T14:25:15.915Z,33.46
2017-07-30T14:27:43.319Z,33.75
2017-07-30T14:30:10.791Z,33.88
2017-07-30T14:32:38.194Z,33.45
2017-07-30T14:35:05.623Z,34.12
2017-07-30T14:37:33.046Z,33.98
2017-07-30T14:40:00.459Z,33.90
2017-07-30T14:42:27.932Z,33.44
2017-07-30T14:44:55.457Z,32.42
2017-07-30T14:47:22.895Z,32.17
2017-07-30T14:49:50.343Z,32.40
2017-07-30T14:52:18.312Z,31.73
2017-07-30T14:54:45.712Z,31.39
2017-07-30T14:57:13.211Z,31.60
2017-07-30T14:59:40.639Z,31.66
2017-07-30T15:02:08.093Z,31.50
2017-07-30T15:04:35.523Z,31.49
2017-07-30T15:07:02.926Z,31.03
2017-07-30T15:09:30.362Z,31.25
2017-07-30T15:11:57.775Z,31.20
2017-07-30T15:14:25.187Z,31.14
2017-07-30T15:16:52.625Z,31.20
2017-07-30T15:19:20.038Z,31.52
2017-07-30T15:21:47.479Z,31.43
2017-07-30T15:24:15.005Z,31.75
2017-07-30T15:26:42.407Z,31.63
2017-07-30T15:29:09.844Z,31.74
2017-07-30T15:31:37.258Z,31.95
2017-07-30T15:34:04.692Z,32.28
2017-07-30T15:36:32.103Z,32.12
2017-07-30T15:39:00.115Z,31.99
2017-07-30T15:41:27.546Z,31.97
2017-07-30T15:43:54.963Z,32.27
2017-07-30T15:46:22.397Z,32.44
2017-07-30T15:48:49.825Z,32.15
2017-07-30T15:51:17.238Z,32.46
2017-07-30T15:53:44.645Z,32.36
2017-07-30T15:56:12.085Z,32.47
2017-07-30T15:58:40.403Z,32.02
2017-07-30T16:01:07.811Z,31.71
2017-07-30T16:03:35.241Z,31.38
2017-07-30T16:06:02.659Z,31.37
2017-07-30T16:08:30.059Z,31.36
2017-07-30T16:10:57.496Z,31.32
2017-07-30T16:13:24.974Z,31.09
2017-07-30T16:15:52.426Z,30.87
2017-07-30T16:18:19.862Z,30.79
2017-07-30T16:20:47.357Z,30.57
2017-07-30T16:23:14.777Z,30.63
2017-07-30T16:25:42.210Z,30.61
2017-07-30T16:28:09.631Z,30.52
2017-07-30T16:30:37.057Z,30.52
2017-07-30T16:33:04.499Z,30.48
2017-07-30T16:35:31.949Z,30.36
2017-07-30T16:37:59.380Z,30.33
2017-07-30T16:40:26.782Z,30.35
2017-07-30T16:42:54.187Z,30.33
2017-07-30T16:45:21.702Z,30.23
2017-07-30T16:47:49.102Z,30.14
2017-07-30T16:50:16.517Z,30.03
2017-07-30T16:52:43.947Z,30.10
2017-07-30T16:55:11.388Z,30.19
2017-07-30T16:57:38.811Z,30.02
2017-07-30T17:00:06.248Z,29.67
2017-07-30T17:02:33.647Z,29.50
2017-07-30T17:05:01.092Z,29.35
2017-07-30T17:07:28.577Z,29.18
2017-07-30T17:09:56.062Z,29.21
2017-07-30T17:12:23.498Z,29.37
2017-07-30T17:14:50.907Z,29.15
2017-07-30T17:17:18.934Z,29.03
2017-07-30T17:19:46.338Z,28.98
2017-07-30T17:22:13.743Z,28.92
2017-07-30T17:24:41.171Z,29.07
2017-07-30T17:27:08.600Z,29.05
2017-07-30T17:29:36.018Z,29.05
2017-07-30T17:32:03.472Z,29.00
2017-07-30T17:34:30.898Z,29.02
2017-07-30T17:36:59.075Z,28.99
2017-07-30T17:39:26.470Z,29.00
2017-07-30T17:41:54.018Z,29.04
2017-07-30T17:44:21.443Z,28.90
2017-07-30T17:46:48.851Z,28.89
2017-07-30T17:49:16.273Z,28.92
2017-07-30T17:51:43.721Z,28.81
2017-07-30T17:54:11.147Z,28.56
2017-07-30T17:56:38.550Z,28.35
2017-07-30T17:59:06.545Z,28.15
2017-07-30T18:01:34.016Z,28.09
2017-07-30T18:04:01.728Z,28.03
2017-07-30T18:06:29.159Z,28.10
2017-07-30T18:08:56.595Z,28.12
2017-07-30T18:11:24.033Z,28.13
2017-07-30T18:13:51.495Z,28.10
2017-07-30T18:16:18.903Z,28.06
2017-07-30T18:18:46.306Z,28.11
2017-07-30T18:21:13.755Z,27.98
2017-07-30T18:23:41.235Z,27.96
2017-07-30T18:26:08.662Z,27.86
2017-07-30T18:28:36.083Z,27.77
2017-07-30T18:31:03.493Z,27.71
2017-07-30T18:33:30.939Z,27.69
2017-07-30T18:35:58.338Z,27.77
2017-07-30T18:38:25.801Z,27.84
2017-07-30T18:40:53.240Z,27.80
2017-07-30T18:43:20.704Z,27.74
2017-07-30T18:45:48.132Z,27.36
2017-07-30T18:48:15.557Z,27.30
2017-07-30T18:50:43.064Z,27.11
2017-07-30T18:53:10.502Z,27.03
2017-07-30T18:55:37.954Z,26.94
2017-07-30T18:58:05.728Z,26.50
2017-07-30T19:00:33.147Z,26.01
2017-07-30T19:03:00.616Z,25.71
2017-07-30T19:05:29.006Z,25.46
2017-07-30T19:07:56.423Z,24.92
2017-07-30T19:10:23.877Z,24.51
2017-07-30T19:12:51.296Z,24.38
2017-07-30T19:15:18.753Z,24.40
2017-07-30T19:17:46.199Z,24.73
2017-07-30T19:20:13.649Z,25.13
2017-07-30T19:22:41.109Z,25.45
2017-07-30T19:25:08.552Z,25.64
2017-07-30T19:27:35.992Z,25.78
2017-07-30T19:30:03.508Z,25.89
2017-07-30T19:32:31.026Z,25.96
2017-07-30T19:34:58.525Z,25.72
2017-07-30T19:37:26.060Z,25.46
2017-07-30T19:39:53.469Z,25.08
2017-07-30T19:42:20.912Z,25.10
2017-07-30T19:44:48.369Z,25.20
2017-07-30T19:47:15.924Z,25.33
2017-07-30T19:49:43.414Z,25.32
2017-07-30T19:52:10.889Z,25.46
2017-07-30T19:54:38.389Z,25.39
2017-07-30T19:57:05.799Z,25.23
2017-07-30T19:59:33.227Z,25.22
2017-07-30T20:02:00.655Z,25.20
2017-07-30T20:04:28.100Z,25.12
2017-07-30T20:06:55.519Z,25.07
2017-07-30T20:09:22.971Z,25.09
2017-07-30T20:11:50.395Z,25.13
2017-07-30T20:14:17.856Z,25.13
2017-07-30T20:16:45.305Z,25.13
2017-07-30T20:19:12.715Z,25.12
2017-07-30T20:21:40.156Z,25.17
2017-07-30T20:24:07.813Z,25.18
2017-07-30T20:26:35.274Z,25.16
2017-07-30T20:29:02.699Z,25.11
2017-07-30T20:31:30.125Z,24.98
2017-07-30T20:33:57.571Z,24.94
2017-07-30T20:36:24.983Z,24.92
2017-07-30T20:38:52.423Z,24.88
2017-07-30T20:41:19.863Z,24.78
2017-07-30T20:43:47.279Z,24.78
2017-07-30T20:46:14.728Z,24.82
2017-07-30T20:48:42.159Z,24.64
2017-07-30T20:51:09.573Z,24.52
2017-07-30T20:53:37.023Z,24.65
2017-07-30T20:56:04.464Z,24.78
2017-07-30T20:58:31.876Z,24.90
2017-07-30T21:00:59.272Z,25.01
2017-07-30T21:03:26.773Z,25.03
2017-07-30T21:05:54.171Z,25.03
2017-07-30T21:08:21.583Z,24.80
2017-07-30T21:10:49.028Z,24.87
2017-07-30T21:13:16.455Z,24.97
2017-07-30T21:15:43.860Z,25.00
2017-07-30T21:18:11.307Z,25.06
2017-07-30T21:20:38.745Z,25.07
2017-07-30T21:23:06.188Z,25.01
2017-07-30T21:28:07.456Z,24.78
2017-07-30T21:30:34.875Z,24.77
2017-07-30T21:33:02.282Z,24.75
2017-07-30T21:35:29.720Z,24.75
2017-07-30T21:37:57.123Z,24.74
2017-07-30T21:40:24.536Z,24.76
2017-07-30T21:42:51.964Z,24.76
2017-07-30T21:45:19.383Z,24.78
2017-07-30T21:47:46.837Z,24.81
2017-07-30T21:50:14.243Z,24.77
2017-07-30T21:52:41.675Z,24.60
2017-07-30T21:55:09.119Z,24.37
2017-07-30T21:57:36.575Z,24.19
2017-07-30T22:00:04.051Z,24.04
2017-07-30T22:02:31.508Z,23.94
2017-07-30T22:04:58.937Z,23.92
2017-07-30T22:07:26.375Z,24.02
2017-07-30T22:09:53.774Z,23.92
2017-07-30T22:12:21.221Z,23.62
2017-07-30T22:14:48.687Z,23.27
2017-07-30T22:17:16.081Z,23.28
2017-07-30T22:19:43.648Z,23.46
2017-07-30T22:22:11.052Z,23.56
2017-07-30T22:24:38.495Z,23.51
2017-07-30T22:27:05.949Z,23.32
2017-07-30T22:29:33.350Z,23.15
2017-07-30T22:32:00.782Z,23.20
2017-07-30T22:34:28.267Z,23.31
2017-07-30T22:36:55.725Z,23.44
2017-07-30T22:39:23.774Z,23.48
2017-07-30T22:41:51.226Z,23.52
2017-07-30T22:44:18.652Z,23.57
2017-07-30T22:46:46.072Z,23.56
2017-07-30T22:49:13.602Z,23.43
2017-07-30T22:51:41.010Z,23.39
2017-07-30T22:54:08.431Z,23.35
2017-07-30T22:56:35.863Z,23.26
2017-07-30T22:59:03.263Z,23.21
2017-07-30T23:01:30.791Z,23.09
2017-07-30T23:03:58.238Z,23.10
2017-07-30T23:06:25.635Z,23.20
2017-07-30T23:08:53.034Z,23.17
2017-07-30T23:11:20.474Z,23.20
2017-07-30T23:13:47.920Z,23.19
2017-07-30T23:16:15.431Z,23.24
2017-07-30T23:18:42.954Z,23.05
2017-07-30T23:21:10.387Z,23.09
2017-07-30T23:23:37.872Z,22.99
2017-07-30T23:26:05.315Z,22.92
2017-07-30T23:28:32.717Z,22.88
2017-07-30T23:31:00.133Z,22.89
2017-07-30T23:33:27.619Z,22.87
2017-07-30T23:35:55.107Z,22.80
2017-07-30T23:38:22.547Z,22.75
2017-07-30T23:40:49.955Z,22.74
2017-07-30T23:43:17.362Z,22.79
2017-07-30T23:45:44.794Z,22.76
2017-07-30T23:48:12.192Z,22.85
2017-07-30T23:50:39.691Z,22.86
2017-07-30T23:53:07.177Z,22.83
2017-07-30T23:55:34.622Z,22.82
2017-07-30T23:58:02.037Z,22.89
